Flight Track Log - Related Links

Times and Time Zones

All times are in EDT time to prevent confusion due to time zone crossing. See the CMP250 flight status page for this flight to view local times or setup timezone preferences in your user account.

Time Position Orientation Groundspeed Altitude Reporting Facility
EDT Latitude Longitude Course Direction KTS MPH feet Rate Location/Type
Sun 04:19:04 PM 10.0630 -68.3940 273° West 383 441 14,500  Level FlightAware ADS-B
Sun 04:19:45 PM 10.0660 -68.4680 272° West 391 450 16,100 2,118 Climbing FlightAware ADS-B
Sun 04:19:55 PM 10.0660 -68.4800 270° West 392 451 16,300 1,783 Climbing FlightAware ADS-B
Sun 04:22:03 PM 10.0730 -68.7080 272° West 421 484 20,200 1,556 Climbing FlightAware ADS-B
Sun 04:22:37 PM 10.0650 -68.7690 262° West 422 486 20,500 2,466 Climbing FlightAware ADS-B
Sun 04:23:16 PM 10.0530 -68.8750 263° West 425 489 23,200 2,805 Climbing FlightAware ADS-B
Sun 04:23:54 PM 10.0450 -68.9380 263° West 431 496 24,100 1,437 Climbing FlightAware ADS-B
Sun 04:24:27 PM 10.0360 -69.0200 264° West 446 513 24,900 1,500 Climbing FlightAware ADS-B
Sun 04:25:06 PM 10.0270 -69.1000 263° West 451 519 25,900 1,629 Climbing FlightAware ADS-B
Sun 04:25:37 PM 10.0190 -69.1660 263° West 450 518 26,800 1,714 Climbing FlightAware ADS-B
Sun 04:26:16 PM 10.0090 -69.2490 263° West 449 517 27,900 1,425 Climbing FlightAware ADS-B
Sun 04:26:57 PM 9.9990 -69.3350 263° West 453 521 28,700 1,169 Climbing FlightAware ADS-B
Sun 04:27:33 PM 9.9900 -69.4110 263° West 460 529 29,400 1,108 Climbing FlightAware ADS-B
Sun 04:28:02 PM 9.9830 -69.4710 263° West 462 532 29,900 837 Climbing FlightAware ADS-B
Sun 04:28:59 PM 9.9700 -69.5850 263° West 462 532 30,600 1,326 Climbing FlightAware ADS-B
Sun 04:29:37 PM 9.9590 -69.6760 263° West 462 532 32,000 1,747 Climbing FlightAware ADS-B
Sun 04:30:18 PM 9.9490 -69.7570 263° West 461 531 32,900 1,463 Climbing FlightAware ADS-B
Sun 04:30:59 PM 9.9380 -69.8530 263° West 455 524 34,000 1,425 Climbing FlightAware ADS-B
Sun 04:31:38 PM 9.9290 -69.9330 263° West 452 520 34,800 1,280 Climbing FlightAware ADS-B
Sun 04:32:14 PM 9.9200 -70.0100 263° West 448 516 35,600 1,286 Climbing FlightAware ADS-B
Sun 04:32:48 PM 9.9110 -70.0820 263° West 444 511 36,300 1,120 Climbing FlightAware ADS-B
Sun 04:33:29 PM 9.9010 -70.1650 263° West 441 507 37,000 960 Climbing FlightAware ADS-B
Sun 04:34:03 PM 9.8930 -70.2360 263° West 439 505 37,500 831 Climbing FlightAware ADS-B
Sun 04:34:34 PM 9.8850 -70.2980 263° West 438 504 37,900 429 Climbing FlightAware ADS-B
Sun 04:35:13 PM 9.8750 -70.3790 263° West 441 507 38,000 71 Climbing FlightAware ADS-B
Sun 04:35:59 PM 9.8640 -70.4740 263° West 442 509 38,000  Level FlightAware ADS-B
Sun 04:36:33 PM 9.8560 -70.5430 263° West 442 509 38,000  Level FlightAware ADS-B
Sun 04:37:09 PM 9.8470 -70.6120 262° West 441 507 38,000  Level FlightAware ADS-B
Sun 04:37:46 PM 9.8400 -70.6760 264° West 441 507 38,000  Level FlightAware ADS-B
Sun 04:38:20 PM 9.8290 -70.7640 263° West 443 510 38,000  Level FlightAware ADS-B
Sun 04:38:56 PM 9.8210 -70.8330 263° West 444 511 38,000  Level FlightAware ADS-B
Sun 04:39:30 PM 9.8110 -70.9090 262° West 444 511 38,000  Level FlightAware ADS-B
Sun 04:39:57 PM 9.8060 -70.9580 264° West 444 511 38,000  Level FlightAware ADS-B
Sun 04:41:10 PM 9.7860 -71.1140 263° West 445 512 38,000  Level FlightAware ADS-B
Sun 04:41:51 PM 9.7760 -71.1960 263° West 445 512 38,000  Level FlightAware ADS-B
Sun 04:42:34 PM 9.7670 -71.2760 263° West 445 512 38,000  Level FlightAware ADS-B
Sun 04:42:41 PM 9.7640 -71.2990 262° West 443 510 38,000  Level FlightAware ADS-B
Sun 04:43:56 PM 9.7450 -71.4530 263° West 438 504 38,000  Level FlightAware ADS-B
Sun 04:44:41 PM 9.7360 -71.5280 263° West 438 504 38,000  Level FlightAware ADS-B
Sun 04:45:17 PM 9.7280 -71.5900 263° West 438 504 38,000  Level FlightAware ADS-B
Sun 04:45:53 PM 9.7210 -71.6530 264° West 438 504 38,000  Level FlightAware ADS-B
Sun 04:46:30 PM 9.7130 -71.7170 263° West 438 504 38,000  Level FlightAware ADS-B
Sun 04:47:06 PM 9.7050 -71.7800 263° West 438 504 38,000  Level FlightAware ADS-B
Sun 04:47:42 PM 9.6980 -71.8420 263° West 438 504 38,000  Level FlightAware ADS-B
Sun 04:48:18 PM 9.6900 -71.9040 263° West 438 504 38,000  Level FlightAware ADS-B
Sun 04:48:52 PM 9.6700 -72.0600 263° West 38,000  Level FlightAware ADS-B
Sun 04:49:36 PM 9.6590 -72.1470 263° West 442 509 38,000  Level FlightAware ADS-B
Sun 04:50:18 PM 9.6500 -72.2180 263° West 442 509 38,000  Level FlightAware ADS-B
Sun 04:50:55 PM 9.6420 -72.2830 263° West 442 509 38,000  Level FlightAware ADS-B
Sun 04:51:28 PM 9.6290 -72.3810 262° West 444 511 38,000  Level FlightAware ADS-B
Sun 04:51:58 PM 9.6210 -72.4430 263° West 444 511 38,000  Level FlightAware ADS-B
Sun 04:52:38 PM 9.6110 -72.5250 263° West 443 510 38,000  Level FlightAware ADS-B
Sun 04:53:18 PM 9.6010 -72.6080 263° West 443 510 38,000  Level FlightAware ADS-B
Sun 04:53:53 PM 9.5910 -72.6790 262° West 444 511 38,000  Level FlightAware ADS-B
Sun 04:54:28 PM 9.5820 -72.7530 263° West 443 510 38,000  Level FlightAware ADS-B
Sun 04:55:04 PM 9.5730 -72.8240 263° West 443 510 38,000  Level FlightAware ADS-B
Sun 04:55:38 PM 9.5640 -72.8950 263° West 443 510 38,000  Level FlightAware ADS-B
Sun 04:56:13 PM 9.5550 -72.9670 263° West 443 510 38,000  Level FlightAware ADS-B
Sun 04:56:48 PM 9.5460 -73.0390 263° West 443 510 38,000  Level FlightAware ADS-B
Sun 04:57:23 PM 9.5360 -73.1110 262° West 443 510 38,000  Level FlightAware ADS-B
Sun 04:57:58 PM 9.5270 -73.1830 263° West 442 509 38,000  Level FlightAware ADS-B
Sun 04:58:33 PM 9.5170 -73.2520 262° West 443 510 38,000  Level FlightAware ADS-B
Sun 04:59:08 PM 9.5060 -73.3260 261° West 443 510 38,000  Level FlightAware ADS-B
Sun 04:59:43 PM 9.4960 -73.3950 262° West 442 509 38,000  Level FlightAware ADS-B
Sun 04:59:58 PM 9.4920 -73.4270 263° West 443 510 38,000  Level FlightAware ADS-B
Sun 05:01:11 PM 9.4710 -73.5720 262° West 443 510 38,000  Level FlightAware ADS-B
Sun 05:01:43 PM 9.4610 -73.6440 262° West 441 507 38,000  Level FlightAware ADS-B
Sun 05:02:18 PM 9.4510 -73.7150 262° West 441 507 38,000  Level FlightAware ADS-B
Sun 05:02:53 PM 9.4410 -73.7840 262° West 441 507 38,000  Level FlightAware ADS-B
Sun 05:03:05 PM 9.4380 -73.8070 262° West 441 507 38,000  Level FlightAware ADS-B
Sun 05:04:18 PM 9.4160 -73.9590 262° West 441 507 38,000  Level FlightAware ADS-B
Sun 05:04:53 PM 9.4060 -74.0230 261° West 440 506 38,000  Level FlightAware ADS-B
Sun 05:05:28 PM 9.3960 -74.1010 263° West 439 505 38,000  Level FlightAware ADS-B
Sun 05:06:08 PM 9.3840 -74.1800 261° West 439 505 38,000  Level FlightAware ADS-B
Sun 05:06:48 PM 9.3720 -74.2650 262° West 439 505 38,000  Level FlightAware ADS-B
Sun 05:07:18 PM 9.3630 -74.3220 261° West 440 506 38,000  Level FlightAware ADS-B
Sun 05:07:58 PM 9.3510 -74.4070 262° West 441 507 38,000  Level FlightAware ADS-B
Sun 05:08:38 PM 9.3400 -74.4820 262° West 442 509 38,000  Level FlightAware ADS-B
Sun 05:09:13 PM 9.3290 -74.5570 262° West 442 509 38,000  Level FlightAware ADS-B
Sun 05:09:48 PM 9.3190 -74.6280 262° West 442 509 38,000  Level FlightAware ADS-B
Sun 05:10:28 PM 9.3070 -74.7130 262° West 442 509 38,000  Level FlightAware ADS-B
Sun 05:11:19 PM 9.2930 -74.8040 261° West 444 511 38,000  Level FlightAware ADS-B
Sun 05:11:54 PM 9.2830 -74.8870 263° West 444 511 38,000  Level FlightAware ADS-B
Sun 05:12:28 PM 9.2760 -74.9580 264° West 445 512 38,000  Level FlightAware ADS-B
Sun 05:13:03 PM 9.2690 -75.0270 264° West 445 512 38,000  Level FlightAware ADS-B
Sun 05:13:38 PM 9.2610 -75.1030 264° West 446 513 38,000  Level FlightAware ADS-B
Sun 05:14:08 PM 9.2550 -75.1570 264° West 446 513 38,000  Level FlightAware ADS-B
Sun 05:14:48 PM 9.2460 -75.2430 264° West 446 513 38,000  Level FlightAware ADS-B
Sun 05:15:23 PM 9.2380 -75.3210 264° West 445 512 38,000  Level FlightAware ADS-B
Sun 05:15:58 PM 9.2300 -75.3940 264° West 445 512 38,000  Level FlightAware ADS-B
Sun 05:16:33 PM 9.2230 -75.4650 264° West 444 511 38,000  Level FlightAware ADS-B
Sun 05:17:03 PM 9.2180 -75.5270 265° West 443 510 38,000  Level FlightAware ADS-B
Sun 05:17:44 PM 9.2110 -75.6020 265° West 442 509 38,000  Level FlightAware ADS-B
Sun 05:18:18 PM 9.2040 -75.6770 265° West 441 507 38,000  Level FlightAware ADS-B
Sun 05:18:48 PM 9.1980 -75.7440 265° West 441 507 38,000  Level FlightAware ADS-B
Sun 05:19:28 PM 9.1910 -75.8260 265° West 440 506 38,000  Level FlightAware ADS-B
Sun 05:20:23 PM 9.1840 -75.9140 265° West 440 506 38,000  Level FlightAware ADS-B
Sun 05:21:08 PM 9.1740 -76.0320 265° West 444 511 38,000  Level FlightAware ADS-B
Sun 05:21:43 PM 9.1690 -76.1030 266° West 445 512 38,000  Level FlightAware ADS-B
Sun 05:22:13 PM 9.1630 -76.1670 265° West 446 513 38,000  Level FlightAware ADS-B
Sun 05:23:06 PM 9.1570 -76.2590 266° West 447 514 38,000  Level FlightAware ADS-B
Sun 05:23:52 PM 9.1510 -76.3400 266° West 447 514 38,000  Level FlightAware ADS-B
Sun 05:24:28 PM 9.1470 -76.4040 266° West 447 514 38,000  Level FlightAware ADS-B
Sun 05:25:03 PM 9.1350 -76.5220 264° West 38,000  Level FlightAware ADS-B
Sun 05:25:48 PM 9.1280 -76.6100 265° West 448 516 38,000  Level FlightAware ADS-B
Sun 05:26:18 PM 9.1230 -76.6760 266° West 449 517 38,000  Level FlightAware ADS-B
Sun 05:26:58 PM 9.1170 -76.7620 266° West 448 516 38,000  Level FlightAware ADS-B
Sun 05:27:33 PM 9.1110 -76.8320 265° West 448 516 38,000  Level FlightAware ADS-B
Sun 05:28:03 PM 9.1010 -76.8970 261° West 445 512 38,000  Level FlightAware ADS-B
Sun 05:28:43 PM 9.0890 -76.9780 261° West 444 511 38,000  Level FlightAware ADS-B
Sun 05:29:18 PM 9.0780 -77.0500 261° West 443 510 38,000  Level FlightAware ADS-B
Sun 05:29:50 PM 9.0680 -77.1150 261° West 442 509 38,000  Level FlightAware ADS-B
Sun 05:30:25 PM 9.0600 -77.1880 264° West 441 507 38,000  Level FlightAware ADS-B
Sun 05:31:00 PM 9.0590 -77.2580 269° West 441 507 38,000 -675 Level FlightAware ADS-B
Sun 05:31:45 PM 9.0580 -77.3520 269° West 430 495 37,100 -1,421 Descending FlightAware ADS-B
Sun 05:32:16 PM 9.0570 -77.4120 269° West 423 487 36,200 -1,662 Descending FlightAware ADS-B
Sun 05:32:50 PM 9.0560 -77.4800 269° West 423 487 35,300 -1,703 Descending FlightAware ADS-B
Sun 05:33:30 PM 9.0540 -77.5610 269° West 439 505 34,100 -1,800 Descending FlightAware ADS-B
Sun 05:34:00 PM 9.0530 -77.6230 269° West 451 519 33,200 -1,846 Descending FlightAware ADS-B
Sun 05:34:35 PM 9.0520 -77.6980 269° West 447 514 32,100 -1,886 Descending FlightAware ADS-B
Sun 05:35:10 PM 9.0510 -77.7700 269° West 439 505 31,000 -1,886 Descending FlightAware ADS-B
Sun 05:35:45 PM 9.0500 -77.8400 269° West 432 497 29,900 -1,800 Descending FlightAware ADS-B
Sun 05:36:20 PM 9.0490 -77.9110 269° West 424 488 28,900 -1,760 Descending FlightAware ADS-B
Sun 05:37:00 PM 9.0470 -77.9880 268° West 415 478 27,700 -1,800 Descending FlightAware ADS-B
Sun 05:37:30 PM 9.0460 -78.0470 269° West 409 471 26,800 -1,658 Descending FlightAware ADS-B
Sun 05:38:16 PM 9.0450 -78.1300 269° West 400 460 25,600 -1,650 Descending FlightAware ADS-B
Sun 05:38:50 PM 9.0440 -78.1950 269° West 392 451 24,600 -1,652 Descending FlightAware ADS-B
Sun 05:39:25 PM 9.0430 -78.2570 269° West 385 443 23,700 -1,606 Descending FlightAware ADS-B
Sun 05:40:01 PM 9.0420 -78.3210 269° West 379 436 22,700 -1,629 Descending FlightAware ADS-B
Sun 05:40:35 PM 9.0410 -78.3810 269° West 372 428 21,800 -1,571 Descending FlightAware ADS-B
Sun 05:41:25 PM 9.0390 -78.4680 269° West 364 419 20,500 -1,535 Descending FlightAware ADS-B
Sun 05:42:01 PM 9.0380 -78.5280 269° West 357 411 19,600 -1,543 Descending FlightAware ADS-B
Sun 05:42:35 PM 9.0370 -78.5850 269° West 351 404 18,700 -1,571 Descending FlightAware ADS-B
Sun 05:43:25 PM 9.0350 -78.6620 268° West 347 399 17,400 -2,267 Descending FlightAware ADS-B
Sun 05:44:05 PM 9.0180 -78.7310 256° West 371 427 15,300 -2,338 Descending FlightAware ADS-B
Sun 05:44:42 PM 9.0030 -78.7870 255° West 361 415 14,400 -1,629 Descending FlightAware ADS-B
Sun 05:45:15 PM 8.9870 -78.8470 255° West 348 400 13,400 -1,518 Descending FlightAware ADS-B
Sun 05:46:05 PM 8.9670 -78.9200 255° West 340 391 12,300 -733 Descending FlightAware ADS-B
Sun 05:46:45 PM 8.9540 -78.9720 256° West 340 391 12,300 -1,569 Level FlightAware ADS-B
Sun 05:47:10 PM 8.9400 -79.0190 253° West 356 410 10,600 -2,123 Descending FlightAware ADS-B
Sun 05:47:50 PM 8.9240 -79.0770 254° West 306 352 10,000 -1,000 Descending FlightAware ADS-B
Sun 05:48:10 PM 8.9170 -79.1030 255° West 303 349 9,600 -1,200 Descending FlightAware ADS-B
Sun 05:48:25 PM 8.9140 -79.1160 257° West 301 346 9,300 -973 Descending FlightAware ADS-B
Sun 05:48:47 PM 8.9080 -79.1350 252° West 301 346 9,000 -517 Descending FlightAware ADS-B
Sun 05:49:23 PM 8.8970 -79.1750 254° West 298 343 8,800 -1,263 Descending FlightAware ADS-B
Sun 05:49:44 PM 8.8880 -79.2110 256° West 287 330 7,800 -2,000 Descending FlightAware ADS-B
Sun 05:50:08 PM 8.8800 -79.2390 254° West 284 327 7,300 -1,224 Descending FlightAware ADS-B
Sun 05:50:33 PM 8.8700 -79.2740 254° West 280 322 6,800 -1,660 Descending FlightAware ADS-B
Sun 05:50:55 PM 8.8580 -79.3190 255° West 276 318 6,000 -882 Descending FlightAware ADS-B
Sun 05:51:41 PM 8.8460 -79.3670 256° West 271 312 5,800 -750 Descending FlightAware ADS-B
Sun 05:52:15 PM 8.8460 -79.4110 270° West 238 274 5,000 -1,231 Descending FlightAware ADS-B
Sun 05:52:20 PM 8.8470 -79.4130 297° West 241 277 5,000  Level FlightAware ADS-B
Sun 05:52:45 PM 8.8600 -79.4340 302° West 241 277 5,000 -1,069 Level FlightAware ADS-B
Sun 05:55:00 PM 9.0714 -79.3835 13° North  Level Estimated
Sun 05:55:32 PM 8.9910 -79.4250 13° North 1,600  Level FlightAware ADS-B
Sun 05:55:42 PM 8.9970 -79.4210 33° Northeast 153 176 1,400 -1,000 Descending FlightAware ADS-B
Sun 05:56:02 PM 9.0100 -79.4140 28° Northeast 148 170 1,100 -857 Descending FlightAware ADS-B
Sun 05:56:17 PM 9.0200 -79.4080 31° Northeast 148 170 900 -1,000 Descending FlightAware ADS-B
Sun 05:56:38 PM 9.0330 -79.4010 28° Northeast 152 175 500 -1,143 Descending FlightAware ADS-B
Sun 05:57:13 PM 9.0550 -79.3880 30° Northeast 150 173 -857 Descending FlightAware ADS-B

Login

Don't have an account? Register now (free) for customized features, flight alerts, and more!